Time;durP1;ratioP1;P1;durP2;ratioP2;P2;SDS_P1;SDS_P2;PMS_P1;PMS_P2;Temp;Humidity;BMP_temperature;BMP_pressure;BME280_temperature;BME280_humidity;BME280_pressure;Samples;Min_cycle;Max_cycle;Signal;HPM_P1;HPM_P2
2022/03/01 00:01:19;;;;;;;18.30;13.20;;;;;;;;;;5081304;28;20445;-73
2022/03/01 00:03:45;;;;;;;22.02;13.85;;;;;;;;;;5101802;28;20517;-73
2022/03/01 00:06:11;;;;;;;22.00;14.50;;;;;;;;;;5103572;28;20931;-73
2022/03/01 00:08:37;;;;;;;22.38;14.57;;;;;;;;;;5083416;28;20432;-73
2022/03/01 00:11:03;;;;;;;20.90;14.07;;;;;;;;;;5108513;28;20911;-73
2022/03/01 00:13:29;;;;;;;21.30;14.25;;;;;;;;;;5077682;28;20424;-73
2022/03/01 00:15:56;;;;;;;18.52;12.68;;;;;;;;;;5102003;28;20417;-73
2022/03/01 00:18:22;;;;;;;18.13;12.52;;;;;;;;;;5101757;28;20448;-73
2022/03/01 00:20:48;;;;;;;18.38;12.82;;;;;;;;;;5107128;28;20633;-73
2022/03/01 00:23:14;;;;;;;17.00;12.27;;;;;;;;;;5101441;28;20407;-73
2022/03/01 00:25:40;;;;;;;19.35;12.85;;;;;;;;;;5100882;28;20405;-73
2022/03/01 00:28:06;;;;;;;20.27;13.23;;;;;;;;;;5103299;28;20922;-73
2022/03/01 00:30:32;;;;;;;20.50;12.98;;;;;;;;;;5099259;28;20429;-73
2022/03/01 00:32:58;;;;;;;21.88;13.02;;;;;;;;;;5096782;28;20417;-73
2022/03/01 00:35:25;;;;;;;21.73;13.30;;;;;;;;;;5085266;28;20416;-73
2022/03/01 00:37:51;;;;;;;17.88;12.38;;;;;;;;;;5105127;28;20404;-73
2022/03/01 00:40:17;;;;;;;18.13;12.90;;;;;;;;;;5096860;28;20469;-73
2022/03/01 00:42:43;;;;;;;19.55;13.40;;;;;;;;;;5100186;28;20879;-73
2022/03/01 00:45:09;;;;;;;20.13;13.63;;;;;;;;;;5098890;28;20550;-73
2022/03/01 00:47:35;;;;;;;18.98;12.60;;;;;;;;;;5105623;28;20400;-73
2022/03/01 00:50:01;;;;;;;18.40;13.03;;;;;;;;;;5103324;28;20462;-73
2022/03/01 00:52:28;;;;;;;21.27;14.05;;;;;;;;;;5105046;28;20431;-73
2022/03/01 00:54:54;;;;;;;19.50;12.23;;;;;;;;;;5099763;28;20402;-73
2022/03/01 00:57:20;;;;;;;18.20;12.50;;;;;;;;;;5102070;28;20416;-73
2022/03/01 00:59:46;;;;;;;17.00;12.02;;;;;;;;;;5098743;28;20416;-73
2022/03/01 01:02:12;;;;;;;17.67;12.45;;;;;;;;;;5109535;28;20408;-73
2022/03/01 01:04:38;;;;;;;17.67;12.43;;;;;;;;;;5094253;28;20811;-73
2022/03/01 01:07:04;;;;;;;18.27;12.70;;;;;;;;;;5087483;28;20466;-73
2022/03/01 01:09:30;;;;;;;19.42;12.02;;;;;;;;;;5091336;28;20925;-73
2022/03/01 01:11:57;;;;;;;18.58;12.43;;;;;;;;;;5082074;28;20420;-73
2022/03/01 01:14:23;;;;;;;18.63;12.20;;;;;;;;;;5105126;28;20408;-73
2022/03/01 01:16:49;;;;;;;17.70;12.77;;;;;;;;;;5078622;28;20411;-72
2022/03/01 01:19:15;;;;;;;19.02;11.75;;;;;;;;;;5103754;28;20426;-73
2022/03/01 01:24:26;;;;;;;19.48;12.52;;;;;;;;;;5096890;28;20467;-72
2022/03/01 01:26:52;;;;;;;20.27;12.70;;;;;;;;;;5079588;28;20421;-72
2022/03/01 01:29:18;;;;;;;19.08;12.40;;;;;;;;;;5096170;28;20802;-72
2022/03/01 01:31:44;;;;;;;19.13;12.75;;;;;;;;;;5108670;28;20476;-73
2022/03/01 01:34:10;;;;;;;19.48;12.73;;;;;;;;;;5099030;28;20416;-73
2022/03/01 01:36:36;;;;;;;17.00;12.38;;;;;;;;;;5109377;28;20415;-73
2022/03/01 01:39:03;;;;;;;18.23;12.20;;;;;;;;;;5098214;28;20423;-73
2022/03/01 01:41:29;;;;;;;18.92;12.55;;;;;;;;;;5095660;28;20410;-73
2022/03/01 01:43:55;;;;;;;19.80;12.38;;;;;;;;;;5090720;28;20894;-74
2022/03/01 01:46:21;;;;;;;17.77;12.40;;;;;;;;;;5102704;28;20418;-73
2022/03/01 01:48:47;;;;;;;18.20;12.60;;;;;;;;;;5102677;28;20817;-73
2022/03/01 01:51:13;;;;;;;18.63;12.33;;;;;;;;;;5086904;28;20496;-73
2022/03/01 01:53:39;;;;;;;18.48;12.48;;;;;;;;;;5089808;28;20500;-73
2022/03/01 01:56:06;;;;;;;18.55;12.25;;;;;;;;;;5104375;28;20416;-73
2022/03/01 01:58:32;;;;;;;19.45;12.73;;;;;;;;;;5106101;28;20415;-73
2022/03/01 02:00:58;;;;;;;20.17;13.30;;;;;;;;;;5104921;28;20462;-73
2022/03/01 02:03:24;;;;;;;21.38;13.20;;;;;;;;;;5103480;28;20420;-73
2022/03/01 02:05:50;;;;;;;21.55;12.82;;;;;;;;;;5113831;28;20400;-73
2022/03/01 02:08:16;;;;;;;19.55;12.77;;;;;;;;;;5099712;28;20412;-73
2022/03/01 02:10:42;;;;;;;18.77;12.87;;;;;;;;;;5074998;28;20542;-73
2022/03/01 02:13:08;;;;;;;19.45;13.02;;;;;;;;;;5094670;28;21000;-73
2022/03/01 02:15:36;;;;;;;17.77;12.65;;;;;;;;;;5091037;28;20500;-73
2022/03/01 02:18:02;;;;;;;19.90;12.40;;;;;;;;;;5111228;28;20419;-73
2022/03/01 02:20:30;;;;;;;19.67;13.40;;;;;;;;;;5104448;28;20404;-73
2022/03/01 02:22:57;;;;;;;19.67;13.00;;;;;;;;;;5110483;28;21025;-73
2022/03/01 02:25:23;;;;;;;18.65;12.38;;;;;;;;;;5103045;28;20420;-73
2022/03/01 02:27:50;;;;;;;19.90;12.80;;;;;;;;;;5113299;28;20469;-73
2022/03/01 02:30:16;;;;;;;19.17;12.77;;;;;;;;;;5106653;28;20943;-73
2022/03/01 02:32:42;;;;;;;21.17;13.20;;;;;;;;;;5105129;28;20405;-73
2022/03/01 02:35:09;;;;;;;18.75;12.77;;;;;;;;;;5109693;28;20417;-73
2022/03/01 02:37:35;;;;;;;22.00;13.52;;;;;;;;;;5093093;28;20412;-73
2022/03/01 02:40:01;;;;;;;20.50;12.90;;;;;;;;;;5105990;28;20425;-73
2022/03/01 02:42:30;;;;;;;20.08;12.70;;;;;;;;;;5102582;28;20428;-73
2022/03/01 02:44:56;;;;;;;19.90;13.00;;;;;;;;;;5102103;28;20531;-73
2022/03/01 02:47:22;;;;;;;19.13;12.65;;;;;;;;;;5100946;28;20452;-73
2022/03/01 02:49:49;;;;;;;21.63;13.55;;;;;;;;;;5100356;28;20462;-73
2022/03/01 02:52:15;;;;;;;20.27;13.15;;;;;;;;;;5082636;28;20445;-73
2022/03/01 02:54:41;;;;;;;23.00;13.15;;;;;;;;;;5105351;28;20412;-73
2022/03/01 02:57:07;;;;;;;21.83;13.20;;;;;;;;;;5086378;28;20412;-73
2022/03/01 02:59:34;;;;;;;17.67;12.15;;;;;;;;;;5096247;28;20425;-73
2022/03/01 03:02:00;;;;;;;19.90;12.77;;;;;;;;;;5090194;28;20408;-73
2022/03/01 03:04:26;;;;;;;20.73;12.95;;;;;;;;;;5077661;28;20425;-73
2022/03/01 03:06:52;;;;;;;18.30;12.85;;;;;;;;;;5104802;28;20422;-73
2022/03/01 03:09:18;;;;;;;18.85;13.50;;;;;;;;;;5110104;28;20420;-74
2022/03/01 03:11:44;;;;;;;18.75;13.45;;;;;;;;;;5106199;28;20440;-73
2022/03/01 03:14:11;;;;;;;22.67;13.68;;;;;;;;;;5096858;28;20421;-73
2022/03/01 03:16:37;;;;;;;18.13;12.35;;;;;;;;;;5100977;28;20968;-73
2022/03/01 03:19:03;;;;;;;18.48;12.20;;;;;;;;;;5100659;28;20418;-73
2022/03/01 03:21:29;;;;;;;19.67;13.10;;;;;;;;;;5097370;28;20504;-73
2022/03/01 03:23:55;;;;;;;18.13;13.18;;;;;;;;;;5083745;28;20417;-73
2022/03/01 03:26:21;;;;;;;19.48;12.82;;;;;;;;;;5104038;28;20403;-73
2022/03/01 03:28:47;;;;;;;19.60;13.07;;;;;;;;;;5100501;28;20464;-73
2022/03/01 03:31:13;;;;;;;18.80;12.45;;;;;;;;;;5110453;28;20420;-73
2022/03/01 03:33:40;;;;;;;19.27;12.80;;;;;;;;;;5110516;28;20420;-73
2022/03/01 03:36:06;;;;;;;19.77;13.10;;;;;;;;;;5105421;28;20452;-73
2022/03/01 03:38:32;;;;;;;19.33;12.80;;;;;;;;;;5101210;28;20416;-72
2022/03/01 03:40:59;;;;;;;19.08;13.18;;;;;;;;;;5113353;28;20818;-72
2022/03/01 03:43:25;;;;;;;18.60;12.98;;;;;;;;;;5109840;28;20772;-73
2022/03/01 03:45:51;;;;;;;19.80;12.77;;;;;;;;;;5091956;28;20477;-73
2022/03/01 03:48:17;;;;;;;18.38;12.55;;;;;;;;;;5104120;28;20435;-73
2022/03/01 03:50:43;;;;;;;18.98;12.85;;;;;;;;;;5103422;28;20450;-73
2022/03/01 03:53:10;;;;;;;19.15;13.18;;;;;;;;;;5101499;28;20410;-73
2022/03/01 03:55:36;;;;;;;17.63;12.57;;;;;;;;;;5101465;28;20424;-74
2022/03/01 03:58:02;;;;;;;19.23;12.53;;;;;;;;;;5108437;28;20994;-73
2022/03/01 04:00:28;;;;;;;20.23;12.75;;;;;;;;;;5102125;28;20412;-73
2022/03/01 04:02:54;;;;;;;21.13;13.43;;;;;;;;;;5110818;28;20927;-73
2022/03/01 04:05:21;;;;;;;19.92;12.80;;;;;;;;;;5095533;28;20712;-73
2022/03/01 04:07:48;;;;;;;19.05;13.05;;;;;;;;;;5096279;28;20500;-73
2022/03/01 04:10:14;;;;;;;20.30;12.67;;;;;;;;;;5101798;28;20426;-73
2022/03/01 04:12:40;;;;;;;20.67;13.50;;;;;;;;;;5082207;28;20416;-73
2022/03/01 04:15:07;;;;;;;19.77;13.02;;;;;;;;;;5103118;28;20416;-73
2022/03/01 04:17:34;;;;;;;19.73;13.40;;;;;;;;;;5095933;28;20421;-73
2022/03/01 04:20:00;;;;;;;18.85;13.07;;;;;;;;;;5100516;28;20435;-73
2022/03/01 04:22:26;;;;;;;19.48;13.07;;;;;;;;;;5101146;28;20937;-74
2022/03/01 04:24:53;;;;;;;20.70;13.32;;;;;;;;;;5105981;28;20759;-73
2022/03/01 04:27:20;;;;;;;17.92;13.05;;;;;;;;;;5102783;28;20423;-77
2022/03/01 04:29:46;;;;;;;22.45;13.40;;;;;;;;;;5106935;28;20776;-77
2022/03/01 04:32:12;;;;;;;19.50;13.57;;;;;;;;;;5096692;28;20440;-76
2022/03/01 04:34:40;;;;;;;21.00;13.23;;;;;;;;;;5101558;28;20444;-77
2022/03/01 04:37:06;;;;;;;24.25;13.05;;;;;;;;;;5108136;28;20497;-77
2022/03/01 04:39:33;;;;;;;20.95;13.30;;;;;;;;;;5106591;28;20423;-76
2022/03/01 04:41:59;;;;;;;20.63;13.80;;;;;;;;;;5091283;28;20490;-77
2022/03/01 04:44:25;;;;;;;22.02;13.18;;;;;;;;;;5081269;28;20521;-77
2022/03/01 04:46:51;;;;;;;19.57;13.40;;;;;;;;;;5099893;28;20426;-76
2022/03/01 04:49:17;;;;;;;18.15;13.15;;;;;;;;;;5080925;28;20419;-73
2022/03/01 04:51:43;;;;;;;19.33;13.45;;;;;;;;;;5089358;28;20412;-73
2022/03/01 04:54:09;;;;;;;20.20;13.38;;;;;;;;;;5091723;28;20408;-73
2022/03/01 04:56:35;;;;;;;19.63;13.70;;;;;;;;;;5108140;28;20804;-73
2022/03/01 04:59:02;;;;;;;19.80;13.73;;;;;;;;;;5102819;28;20415;-73
2022/03/01 05:01:28;;;;;;;20.67;13.88;;;;;;;;;;5094747;28;20830;-73
2022/03/01 05:03:54;;;;;;;18.95;13.50;;;;;;;;;;5095559;28;20412;-73
2022/03/01 05:06:20;;;;;;;19.45;13.15;;;;;;;;;;5085854;28;20410;-73
2022/03/01 05:08:47;;;;;;;19.38;13.60;;;;;;;;;;5102866;28;20419;-73
2022/03/01 05:11:13;;;;;;;19.42;13.15;;;;;;;;;;5087765;28;20429;-73
2022/03/01 05:13:39;;;;;;;19.73;13.40;;;;;;;;;;5082523;28;20475;-73
2022/03/01 05:16:05;;;;;;;20.35;13.98;;;;;;;;;;5097459;28;20414;-73
2022/03/01 05:18:31;;;;;;;19.40;13.53;;;;;;;;;;5101643;28;21031;-73
2022/03/01 05:20:57;;;;;;;19.70;13.50;;;;;;;;;;5086418;28;20765;-73
2022/03/01 05:23:23;;;;;;;21.95;13.35;;;;;;;;;;5098531;28;20422;-73
2022/03/01 05:25:49;;;;;;;21.85;13.98;;;;;;;;;;5122446;27;20978;-76
2022/03/01 05:28:15;;;;;;;20.42;13.65;;;;;;;;;;5106318;28;20500;-76
2022/03/01 05:30:41;;;;;;;21.00;13.77;;;;;;;;;;5101943;28;20923;-76
2022/03/01 05:33:08;;;;;;;21.67;13.68;;;;;;;;;;5110431;28;20419;-76
2022/03/01 05:35:34;;;;;;;19.65;13.50;;;;;;;;;;5104635;28;20435;-76
2022/03/01 05:38:00;;;;;;;19.08;13.27;;;;;;;;;;5106880;28;20417;-76
2022/03/01 05:40:27;;;;;;;22.27;14.70;;;;;;;;;;5102255;28;20419;-77
2022/03/01 05:42:53;;;;;;;24.45;16.65;;;;;;;;;;5086896;28;20447;-77
2022/03/01 05:45:20;;;;;;;23.92;15.45;;;;;;;;;;5076684;28;20413;-77
2022/03/01 05:47:46;;;;;;;24.63;15.15;;;;;;;;;;5079525;28;20886;-77
2022/03/01 05:50:13;;;;;;;22.10;15.18;;;;;;;;;;5107928;28;20467;-76
2022/03/01 05:52:39;;;;;;;22.67;14.82;;;;;;;;;;5110827;28;20412;-74
2022/03/01 05:55:06;;;;;;;21.73;15.63;;;;;;;;;;5091433;28;20820;-74
2022/03/01 05:57:32;;;;;;;19.58;14.25;;;;;;;;;;5087206;28;20434;-74
2022/03/01 05:59:59;;;;;;;21.15;14.35;;;;;;;;;;5087230;28;20411;-74
2022/03/01 06:02:25;;;;;;;20.75;14.30;;;;;;;;;;5108757;28;20420;-74
2022/03/01 06:04:52;;;;;;;20.20;14.00;;;;;;;;;;5111781;28;20474;-74
2022/03/01 06:07:18;;;;;;;22.15;14.40;;;;;;;;;;5103257;28;20422;-75
2022/03/01 06:09:44;;;;;;;20.33;14.18;;;;;;;;;;5095406;28;20422;-77
2022/03/01 06:12:10;;;;;;;21.92;13.88;;;;;;;;;;5087823;28;20438;-76
2022/03/01 06:14:36;;;;;;;20.42;14.65;;;;;;;;;;5109368;28;20412;-76
2022/03/01 06:17:02;;;;;;;20.53;14.87;;;;;;;;;;5108978;28;20500;-77
2022/03/01 06:19:28;;;;;;;21.15;14.30;;;;;;;;;;5094566;28;20762;-76
2022/03/01 06:21:54;;;;;;;21.00;14.40;;;;;;;;;;5083617;28;20859;-77
2022/03/01 06:24:20;;;;;;;22.88;15.98;;;;;;;;;;5102678;28;20411;-75
2022/03/01 06:26:47;;;;;;;23.67;15.25;;;;;;;;;;5092770;28;20433;-74
2022/03/01 06:29:13;;;;;;;21.60;14.80;;;;;;;;;;5078649;28;20843;-75
2022/03/01 06:31:39;;;;;;;21.90;15.10;;;;;;;;;;5103200;28;20456;-73
2022/03/01 06:34:05;;;;;;;21.33;15.55;;;;;;;;;;5080834;28;20921;-72
2022/03/01 06:36:31;;;;;;;19.77;14.23;;;;;;;;;;5078960;28;20420;-73
2022/03/01 06:38:57;;;;;;;21.20;14.80;;;;;;;;;;5095334;28;20424;-74
2022/03/01 06:41:23;;;;;;;20.63;14.35;;;;;;;;;;5098625;28;20427;-73
2022/03/01 06:43:49;;;;;;;20.90;14.50;;;;;;;;;;5080812;28;20786;-73
2022/03/01 06:46:16;;;;;;;20.60;14.35;;;;;;;;;;5066852;28;20424;-73
2022/03/01 06:48:42;;;;;;;22.33;15.50;;;;;;;;;;5104899;28;20914;-73
2022/03/01 06:51:08;;;;;;;24.17;14.70;;;;;;;;;;5080856;28;20481;-73
2022/03/01 06:53:36;;;;;;;21.05;13.98;;;;;;;;;;5086953;28;20766;-73
2022/03/01 06:56:02;;;;;;;23.38;15.00;;;;;;;;;;5108699;28;20510;-72
2022/03/01 06:58:28;;;;;;;25.83;15.85;;;;;;;;;;5101186;28;20492;-73
2022/03/01 07:00:56;;;;;;;25.77;15.95;;;;;;;;;;5101221;28;20418;-74
2022/03/01 07:03:22;;;;;;;22.55;14.93;;;;;;;;;;5109664;28;20930;-73
2022/03/01 07:05:48;;;;;;;24.58;14.93;;;;;;;;;;5083652;28;20423;-73
2022/03/01 07:08:14;;;;;;;22.75;15.30;;;;;;;;;;5107509;28;20938;-73
2022/03/01 07:10:41;;;;;;;24.25;15.55;;;;;;;;;;5097218;28;20426;-74
2022/03/01 07:13:07;;;;;;;26.58;17.38;;;;;;;;;;5078733;28;20418;-73
2022/03/01 07:15:34;;;;;;;25.58;17.92;;;;;;;;;;5084948;28;20415;-74
2022/03/01 07:18:01;;;;;;;26.38;17.30;;;;;;;;;;5098895;28;20412;-74
2022/03/01 07:20:27;;;;;;;24.73;16.55;;;;;;;;;;5082584;28;20436;-73
2022/03/01 07:22:53;;;;;;;23.35;16.15;;;;;;;;;;5076552;28;20422;-73
2022/03/01 07:25:19;;;;;;;24.63;16.60;;;;;;;;;;5104706;28;20491;-73
2022/03/01 07:27:46;;;;;;;23.88;15.88;;;;;;;;;;5079065;28;20420;-73
2022/03/01 07:30:12;;;;;;;24.73;16.25;;;;;;;;;;5045311;28;1798542;-73
2022/03/01 07:32:38;;;;;;;29.40;19.05;;;;;;;;;;5085687;28;20466;-72
2022/03/01 07:35:04;;;;;;;23.38;15.93;;;;;;;;;;5083818;28;20911;-73
2022/03/01 07:37:32;;;;;;;25.98;16.40;;;;;;;;;;5101727;28;20408;-73
2022/03/01 07:39:59;;;;;;;25.83;17.63;;;;;;;;;;5097565;28;20418;-73
2022/03/01 07:42:25;;;;;;;22.23;16.03;;;;;;;;;;5091084;28;20430;-73
2022/03/01 07:44:51;;;;;;;22.98;15.60;;;;;;;;;;5105550;28;20427;-73
2022/03/01 07:47:18;;;;;;;22.60;15.30;;;;;;;;;;5103701;28;21106;-73
2022/03/01 07:49:47;;;;;;;23.07;14.53;;;;;;;;;;5105052;28;20424;-73
2022/03/01 07:52:13;;;;;;;22.90;15.07;;;;;;;;;;5107217;28;20408;-72
2022/03/01 07:54:39;;;;;;;24.60;15.68;;;;;;;;;;5090355;28;20767;-73
2022/03/01 07:57:05;;;;;;;23.63;15.15;;;;;;;;;;5081010;28;20712;-73
2022/03/01 07:59:31;;;;;;;24.52;14.63;;;;;;;;;;5078562;28;20799;-72
2022/03/01 08:01:57;;;;;;;21.17;14.75;;;;;;;;;;5106583;28;20416;-73
2022/03/01 08:04:23;;;;;;;22.63;15.10;;;;;;;;;;5104050;28;20416;-73
2022/03/01 08:06:49;;;;;;;22.92;14.95;;;;;;;;;;5094841;28;20425;-73
2022/03/01 08:09:15;;;;;;;23.30;15.65;;;;;;;;;;5069753;28;20451;-73
2022/03/01 08:11:41;;;;;;;23.65;16.05;;;;;;;;;;5107208;28;20408;-73
2022/03/01 08:14:07;;;;;;;25.17;15.15;;;;;;;;;;5101788;28;20911;-73
2022/03/01 08:16:33;;;;;;;25.23;15.50;;;;;;;;;;5105684;28;20911;-72
2022/03/01 08:19:00;;;;;;;24.60;15.63;;;;;;;;;;5098651;28;20951;-73
2022/03/01 08:21:26;;;;;;;25.23;15.20;;;;;;;;;;5082763;28;20416;-73
2022/03/01 08:23:52;;;;;;;24.13;14.73;;;;;;;;;;5105905;28;20774;-73
2022/03/01 08:26:18;;;;;;;24.05;16.17;;;;;;;;;;5104737;28;20412;-73
2022/03/01 08:28:46;;;;;;;23.10;16.08;;;;;;;;;;5105050;28;20424;-73
2022/03/01 08:31:12;;;;;;;23.40;15.73;;;;;;;;;;5107507;28;21952;-73
2022/03/01 08:33:38;;;;;;;23.30;15.80;;;4.00;99.90;;;;;;5094835;28;20421;-73
2022/03/01 08:36:05;;;;;;;23.98;15.45;;;4.30;99.90;;;;;;5086626;28;20417;-72
2022/03/01 08:38:31;;;;;;;22.88;15.63;;;;;;;;;;5086534;28;20416;-73
2022/03/01 08:40:57;;;;;;;25.63;16.98;;;;;;;;;;5097173;28;20416;-73
2022/03/01 08:43:24;;;;;;;22.70;15.73;;;;;;;;;;5098161;28;20441;-73
2022/03/01 08:45:50;;;;;;;24.02;15.60;;;;;;;;;;5081652;28;20427;-73
2022/03/01 08:48:16;;;;;;;22.17;14.88;;;;;;;;;;5101195;28;20442;-73
2022/03/01 08:50:42;;;;;;;21.98;15.15;;;;;;;;;;5100615;28;20413;-72
2022/03/01 08:53:09;;;;;;;21.52;15.35;;;;;;;;;;5079034;28;20467;-72
2022/03/01 08:55:35;;;;;;;23.42;15.15;;;;;;;;;;5096166;28;20503;-72
2022/03/01 08:58:01;;;;;;;22.47;15.00;;;5.10;99.90;;;;;;5081302;28;20448;-72
2022/03/01 09:00:28;;;;;;;23.83;15.48;;;;;;;;;;5106482;28;20420;-71
2022/03/01 09:02:54;;;;;;;24.13;15.07;;;;;;;;;;5098578;28;20442;-71
2022/03/01 09:05:20;;;;;;;21.42;15.23;;;;;;;;;;5104801;28;21195;-72
2022/03/01 09:07:46;;;;;;;23.60;15.27;;;;;;;;;;5100366;28;20416;-72
2022/03/01 09:10:12;;;;;;;21.00;14.60;;;;;;;;;;5078515;28;20422;-72
2022/03/01 09:12:38;;;;;;;21.50;15.13;;;;;;;;;;5082189;28;20504;-71
2022/03/01 09:15:04;;;;;;;20.98;14.30;;;;;;;;;;5102158;28;20487;-72
2022/03/01 09:17:31;;;;;;;20.90;14.10;;;;;;;;;;5096132;28;20957;-72
2022/03/01 09:19:57;;;;;;;19.83;13.80;;;;;;;;;;5099636;28;20432;-71
2022/03/01 09:22:23;;;;;;;20.67;14.00;;;;;;;;;;5100175;28;20456;-72
2022/03/01 09:24:49;;;;;;;20.60;14.80;;;;;;;;;;5081927;28;20419;-74
2022/03/01 09:27:15;;;;;;;20.80;14.25;;;;;;;;;;5091003;28;21009;-74
2022/03/01 09:29:41;;;;;;;20.63;14.88;;;;;;;;;;5096706;28;20464;-73
2022/03/01 09:32:07;;;;;;;20.58;15.13;;;;;;;;;;5098625;28;20537;-73
2022/03/01 09:34:33;;;;;;;21.20;14.32;;;;;;;;;;5061070;28;20832;-73
2022/03/01 09:36:59;;;;;;;21.88;14.50;;;;;;;;;;5080873;28;20447;-73
2022/03/01 09:39:25;;;;;;;21.37;14.50;;;;;;;;;;5100719;28;20422;-73
2022/03/01 09:41:52;;;;;;;24.23;15.23;;;;;;;;;;5105847;28;20506;-72
2022/03/01 09:44:18;;;;;;;20.70;14.85;;;6.10;99.90;;;;;;5100665;28;20476;-72
2022/03/01 09:46:45;;;;;;;22.23;14.88;;;;;;;;;;5104351;28;20412;-72
2022/03/01 09:49:11;;;;;;;22.13;14.82;;;;;;;;;;5101702;28;20490;-73
2022/03/01 09:51:41;;;;;;;22.67;14.75;;;;;;;;;;5098718;28;20416;-72
2022/03/01 09:54:07;;;;;;;19.50;14.30;;;;;;;;;;5098562;28;20418;-72
2022/03/01 09:56:34;;;;;;;22.63;14.45;;;;;;;;;;5079825;28;20431;-72
2022/03/01 09:59:00;;;;;;;21.42;15.05;;;;;;;;;;5099624;28;20428;-73
2022/03/01 10:01:26;;;;;;;20.27;14.20;;;;;;;;;;5101220;28;20767;-73
2022/03/01 10:03:53;;;;;;;19.63;14.90;;;;;;;;;;5097273;28;20420;-72
2022/03/01 10:06:24;;;;;;;22.42;14.10;;;;;;;;;;5082938;28;20540;-73
2022/03/01 10:08:54;;;;;;;20.33;13.98;;;;;;;;;;5082243;28;20428;-73
2022/03/01 10:11:20;;;;;;;19.90;14.73;;;;;;;;;;5078528;28;21097;-73
2022/03/01 10:13:47;;;;;;;20.27;13.95;;;;;;;;;;5082943;28;20412;-73
2022/03/01 10:16:19;;;;;;;20.50;14.15;;;;;;;;;;5100478;28;20421;-73
2022/03/01 10:18:57;;;;;;;22.60;14.63;;;;;;;;;;5086508;28;20424;-73
2022/03/01 10:21:24;;;;;;;20.10;13.75;;;;;;;;;;5085863;28;20923;-73
2022/03/01 10:23:55;;;;;;;19.97;14.13;;;7.40;99.90;;;;;;5104237;28;20455;-72
2022/03/01 10:26:25;;;;;;;21.98;14.07;;;;;;;;;;5095788;28;20495;-73
2022/03/01 10:28:54;;;;;;;21.15;14.02;;;7.60;99.90;;;;;;5105861;28;20424;-73
2022/03/01 10:31:25;;;;;;;19.60;14.37;;;;;;;;;;5099447;28;20457;-73
2022/03/01 10:34:08;;;;;;;20.23;14.10;;;;;;;;;;5097038;28;20435;-72
2022/03/01 10:36:46;;;;;;;20.27;14.10;;;8.00;99.90;;;;;;5099648;28;20469;-72
2022/03/01 10:39:19;;;;;;;20.90;12.60;;;;;;;;;;5084512;28;20491;-73
2022/03/01 10:41:50;;;;;;;20.10;13.82;;;8.40;99.90;;;;;;5087630;28;20415;-72
2022/03/01 10:44:17;;;;;;;19.58;13.57;;;;;;;;;;5085418;28;20781;-72
2022/03/01 10:46:50;;;;;;;20.43;13.20;;;;;;;;;;5100232;28;20416;-72
2022/03/01 10:49:18;;;;;;;21.02;13.85;;;;;;;;;;5102763;28;20430;-72
2022/03/01 10:51:51;;;;;;;19.98;14.63;;;;;;;;;;5101954;28;20926;-72
2022/03/01 10:54:37;;;;;;;19.83;13.60;;;;;;;;;;5101605;28;20420;-72
2022/03/01 10:57:06;;;;;;;20.77;13.73;;;8.00;99.90;;;;;;5094230;28;20752;-72
2022/03/01 10:59:32;;;;;;;18.50;13.80;;;;;;;;;;5101917;28;20447;-72
2022/03/01 11:01:59;;;;;;;20.73;14.00;;;;;;;;;;5099185;28;20444;-72
2022/03/01 11:04:25;;;;;;;18.75;14.07;;;;;;;;;;5081000;28;20416;-72
2022/03/01 11:06:53;;;;;;;20.98;14.85;;;;;;;;;;5081696;28;20509;-72
2022/03/01 11:09:19;;;;;;;20.05;14.73;;;;;;;;;;5097603;28;20425;-72
2022/03/01 11:11:46;;;;;;;21.85;14.75;;;;;;;;;;5074777;28;20422;-72
2022/03/01 11:14:18;;;;;;;19.30;13.95;;;8.20;99.90;;;;;;5068273;28;20449;-72
2022/03/01 11:16:47;;;;;;;21.90;14.73;;;;;;;;;;5095070;27;20416;-73
2022/03/01 11:19:24;;;;;;;20.10;14.45;;;8.40;99.90;;;;;;5100782;28;20889;-72
2022/03/01 11:21:51;;;;;;;20.77;14.47;;;;;;;;;;5080014;28;20455;-72
2022/03/01 11:24:18;;;;;;;19.95;14.20;;;;;;;;;;5075502;28;20946;-72
2022/03/01 11:26:44;;;;;;;20.63;15.35;;;;;;;;;;5078976;28;20424;-72
2022/03/01 11:29:11;;;;;;;22.30;15.18;;;;;;;;;;5082061;28;20417;-72
2022/03/01 11:31:38;;;;;;;21.85;15.15;;;;;;;;;;5069256;28;20714;-72
2022/03/01 11:34:15;;;;;;;19.65;14.90;;;;;;;;;;5100643;27;20421;-72
2022/03/01 11:36:55;;;;;;;21.02;15.38;;;;;;;;;;5102741;28;20508;-71
2022/03/01 11:39:35;;;;;;;22.00;15.82;;;;;;;;;;5081295;28;20512;-72
2022/03/01 11:42:01;;;;;;;22.30;15.47;;;;;;;;;;5081180;28;20564;-72
2022/03/01 11:44:32;;;;;;;22.38;15.77;;;;;;;;;;5075857;28;20414;-72
2022/03/01 11:46:59;;;;;;;21.02;14.95;;;;;;;;;;5097773;28;20424;-72
2022/03/01 11:49:31;;;;;;;21.85;15.50;;;8.10;99.90;;;;;;5100267;28;20473;-72
2022/03/01 11:51:58;;;;;;;22.93;15.43;;;;;;;;;;5105354;28;20443;-72
2022/03/01 11:54:31;;;;;;;24.10;16.00;;;;;;;;;;5082845;28;20417;-71
2022/03/01 11:56:58;;;;;;;22.40;15.55;;;;;;;;;;5083475;28;20979;-71
2022/03/01 11:59:25;;;;;;;22.77;15.65;;;8.30;99.90;;;;;;5082315;28;20440;-72
2022/03/01 12:01:52;;;;;;;19.63;14.88;;;;;;;;;;5083089;28;20454;-72
2022/03/01 12:04:43;;;;;;;21.08;14.85;;;8.90;99.90;;;;;;5097377;28;20930;-73
2022/03/01 12:07:10;;;;;;;21.88;15.40;;;;;;;;;;5077759;28;20420;-72
2022/03/01 12:09:38;;;;;;;21.70;15.18;;;;;;;;;;5077167;28;20449;-72
2022/03/01 12:12:06;;;;;;;23.63;15.77;;;8.70;99.90;;;;;;5078775;28;20776;-74
2022/03/01 12:14:34;;;;;;;19.42;14.45;;;;;;;;;;5095814;28;20513;-73
2022/03/01 12:17:01;;;;;;;20.05;14.88;;;;;;;;;;5102767;28;20413;-73
2022/03/01 12:19:31;;;;;;;20.48;15.38;;;8.80;99.90;;;;;;5101624;28;20624;-73
2022/03/01 12:21:58;;;;;;;21.08;14.75;;;;;;;;;;5083325;28;20488;-73
2022/03/01 12:24:26;;;;;;;23.85;16.08;;;;;;;;;;5084308;28;20501;-73
2022/03/01 12:26:54;;;;;;;22.13;16.25;;;;;;;;;;5104027;28;20466;-73
2022/03/01 12:29:22;;;;;;;21.15;15.93;;;9.00;99.90;;;;;;5095085;28;20513;-73
2022/03/01 12:31:59;;;;;;;23.60;16.90;;;;;;;;;;5095646;28;20470;-73
2022/03/01 12:34:27;;;;;;;21.77;16.48;;;9.40;99.90;;;;;;5105640;27;20415;-73
2022/03/01 12:36:54;;;;;;;20.08;15.38;;;;;;;;;;5097063;28;20408;-73
2022/03/01 12:39:21;;;;;;;30.65;16.17;;;;;;;;;;5104554;28;20423;-73
2022/03/01 12:41:48;;;;;;;21.15;15.45;;;;;;;;;;5078799;28;20456;-73
2022/03/01 12:44:15;;;;;;;20.88;15.73;;;;;;;;;;5077187;28;20492;-73
2022/03/01 12:46:42;;;;;;;21.58;15.40;;;;;;;;;;5091958;28;20483;-73
2022/03/01 12:49:09;;;;;;;20.03;15.47;;;;;;;;;;5098029;28;20457;-75
2022/03/01 12:51:36;;;;;;;21.60;16.35;;;;;;;;;;5091083;28;20421;-72
2022/03/01 12:54:10;;;;;;;30.98;15.65;;;;;;;;;;5090590;28;20824;-73
2022/03/01 12:56:38;;;;;;;23.42;16.25;;;10.00;99.90;;;;;;5075413;28;20821;-73
2022/03/01 12:59:05;;;;;;;21.33;15.93;;;;;;;;;;5097586;28;20447;-72
2022/03/01 13:01:32;;;;;;;22.17;15.18;;;;;;;;;;5075413;28;20426;-73
2022/03/01 13:03:58;;;;;;;21.55;15.80;;;;;;;;;;5073426;28;20409;-73
2022/03/01 13:06:24;;;;;;;23.70;16.05;;;;;;;;;;5078307;28;20737;-73
2022/03/01 13:08:52;;;;;;;20.90;15.77;;;9.70;99.90;;;;;;5099548;28;20516;-73
2022/03/01 13:11:18;;;;;;;21.70;15.80;;;;;;;;;;5085842;28;20416;-79
2022/03/01 13:13:49;;;;;;;23.50;16.75;;;;;;;;;;5098049;28;20413;-79
2022/03/01 13:16:20;;;;;;;23.35;16.92;;;;;;;;;;5091009;28;20420;-79
2022/03/01 13:18:47;;;;;;;22.63;16.67;;;;;;;;;;5085849;28;20426;-79
2022/03/01 13:21:13;;;;;;;21.43;16.10;;;;;;;;;;5101079;28;20915;-79
2022/03/01 13:23:39;;;;;;;21.83;16.70;;;;;;;;;;5102750;28;20810;-79
2022/03/01 13:26:06;;;;;;;21.30;15.98;;;;;;;;;;5074997;28;20988;-79
2022/03/01 13:28:34;;;;;;;22.80;16.95;;;;;;;;;;5080397;28;20463;-79
2022/03/01 13:31:00;;;;;;;22.30;16.27;;;;;;;;;;5097341;28;20418;-79
2022/03/01 13:33:28;;;;;;;23.58;16.15;;;;;;;;;;5092580;28;20900;-77
2022/03/01 13:35:54;;;;;;;22.80;16.80;;;;;;;;;;5100413;28;20416;-78
2022/03/01 13:38:21;;;;;;;22.13;15.68;;;;;;;;;;5079556;28;20467;-78
2022/03/01 13:40:47;;;;;;;24.13;16.50;;;;;;;;;;5080676;28;20410;-78
2022/03/01 13:43:16;;;;;;;19.77;16.30;;;9.90;99.90;;;;;;5088552;28;20414;-79
2022/03/01 13:45:43;;;;;;;22.05;16.25;;;;;;;;;;5093780;28;20757;-78
2022/03/01 13:48:17;;;;;;;22.67;16.57;;;9.80;99.90;;;;;;5072250;28;20756;-78
2022/03/01 13:50:44;;;;;;;25.08;17.00;;;;;;;;;;5089473;28;20429;-78
2022/03/01 13:53:13;;;;;;;21.85;16.73;;;;;;;;;;5089793;28;20462;-78
2022/03/01 13:55:39;;;;;;;22.63;17.13;;;;;;;;;;5096663;28;20480;-78
2022/03/01 13:58:08;;;;;;;21.48;16.50;;;9.80;99.90;;;;;;5078043;28;20428;-79
2022/03/01 14:00:36;;;;;;;23.40;17.38;;;;;;;;;;5093138;28;20430;-74
2022/03/01 14:03:02;;;;;;;21.08;15.82;;;;;;;;;;5065995;28;20413;-74
2022/03/01 14:05:29;;;;;;;25.55;17.25;;;;;;;;;;5090301;28;21480;-74
2022/03/01 14:08:03;;;;;;;23.60;16.88;;;;;;;;;;5075469;28;20938;-74
2022/03/01 14:10:30;;;;;;;24.95;17.02;;;;;;;;;;5078378;28;20424;-74